createdAt,value
2022-12-31T00:01:53.523Z,99667.25
2022-12-31T00:04:40.749Z,99737.56
2022-12-31T00:07:26.583Z,99734.31
2022-12-31T00:10:14.729Z,99682.09
2022-12-31T00:13:01.424Z,99727.53
2022-12-31T00:15:48.775Z,99710.72
2022-12-31T00:18:36.197Z,99651.25
2022-12-31T00:21:23.008Z,99732.34
2022-12-31T00:24:11.859Z,99699.91
2022-12-31T00:27:06.720Z,99713.72
2022-12-31T00:29:53.027Z,99696.63
2022-12-31T00:32:40.057Z,99736.69
2022-12-31T00:35:27.205Z,99661.25
2022-12-31T00:38:14.464Z,99723.91
2022-12-31T00:41:01.751Z,99738.22
2022-12-31T00:43:49.636Z,99743.03
2022-12-31T00:49:24.623Z,99706.63
2022-12-31T00:52:14.056Z,99697.44
2022-12-31T00:55:00.319Z,99720.38
2022-12-31T00:57:47.749Z,99690.38
2022-12-31T01:00:34.547Z,99711.19
2022-12-31T01:03:21.277Z,99684.44
2022-12-31T01:06:09.675Z,99715.66
2022-12-31T01:08:56.829Z,99653.00
2022-12-31T01:11:45.965Z,99612.44
2022-12-31T01:14:34.529Z,99655.88
2022-12-31T01:17:21.017Z,99680.19
2022-12-31T01:20:07.997Z,99612.22
2022-12-31T01:22:54.279Z,99656.13
2022-12-31T01:25:42.477Z,99620.72
2022-12-31T01:28:31.424Z,99692.00
2022-12-31T01:31:20.366Z,99654.22
2022-12-31T01:34:07.732Z,99638.25
2022-12-31T01:36:53.652Z,99666.25
2022-12-31T01:39:43.184Z,99604.38
2022-12-31T01:42:30.474Z,99609.47
2022-12-31T01:45:17.538Z,99630.19
2022-12-31T01:48:04.421Z,99667.44
2022-12-31T01:50:53.313Z,99664.97
2022-12-31T01:53:40.992Z,99664.97
2022-12-31T01:56:27.545Z,99603.59
2022-12-31T01:59:14.956Z,99719.91
2022-12-31T02:02:02.229Z,99664.47
2022-12-31T02:04:50.766Z,99651.78
2022-12-31T02:07:38.038Z,99611.00
2022-12-31T02:10:24.614Z,99632.75
2022-12-31T02:13:11.419Z,99710.44
2022-12-31T02:16:11.132Z,99635.84
2022-12-31T02:18:59.860Z,99724.25
2022-12-31T02:21:49.742Z,99724.50
2022-12-31T02:24:59.623Z,99700.59
2022-12-31T02:28:29.330Z,99705.19
2022-12-31T02:31:19.830Z,99684.06
2022-12-31T02:34:21.783Z,99679.41
2022-12-31T02:37:11.456Z,99695.88
2022-12-31T02:39:58.062Z,99677.00
2022-12-31T02:42:51.513Z,99713.09
2022-12-31T02:45:46.137Z,99709.31
2022-12-31T02:48:56.484Z,99648.00
2022-12-31T02:52:01.352Z,99613.72
2022-12-31T02:55:10.673Z,99719.28
2022-12-31T02:58:17.439Z,99722.00
2022-12-31T03:01:22.944Z,99693.44
2022-12-31T03:04:33.090Z,99723.44
2022-12-31T03:07:25.081Z,99718.91
2022-12-31T03:10:12.348Z,99747.22
2022-12-31T03:13:01.751Z,99745.84
2022-12-31T03:15:49.711Z,99717.72
2022-12-31T03:18:56.877Z,99702.66
2022-12-31T03:22:02.008Z,99705.22
2022-12-31T03:25:07.398Z,99746.00
2022-12-31T03:27:54.336Z,99720.97
2022-12-31T03:30:42.773Z,99742.81
2022-12-31T03:33:36.317Z,99725.81
2022-12-31T03:36:23.044Z,99761.59
2022-12-31T03:39:08.950Z,99759.47
2022-12-31T03:41:56.113Z,99759.59
2022-12-31T03:44:42.775Z,99745.53
2022-12-31T03:47:30.712Z,99693.66
2022-12-31T03:50:18.490Z,99691.22
2022-12-31T03:53:05.825Z,99712.41
2022-12-31T03:55:53.351Z,99750.47
2022-12-31T03:58:39.902Z,99694.25
2022-12-31T04:01:26.831Z,99746.84
2022-12-31T04:04:14.138Z,99681.09
2022-12-31T04:07:01.189Z,99690.78
2022-12-31T04:09:47.975Z,99665.50
2022-12-31T04:12:35.608Z,99763.66
2022-12-31T04:15:23.927Z,99735.06
2022-12-31T04:18:11.388Z,99720.81
2022-12-31T04:21:05.206Z,99770.63
2022-12-31T04:23:51.713Z,99741.47
2022-12-31T04:26:39.053Z,99776.00
2022-12-31T04:29:26.312Z,99733.88
2022-12-31T04:32:12.924Z,99664.16
2022-12-31T04:35:00.518Z,99708.22
2022-12-31T04:37:48.140Z,99688.22
2022-12-31T04:40:34.634Z,99662.19
2022-12-31T04:43:21.698Z,99777.09
2022-12-31T04:46:08.054Z,99736.84
2022-12-31T04:48:56.667Z,99766.28
2022-12-31T04:51:43.397Z,99763.75
2022-12-31T04:54:31.641Z,99754.06
2022-12-31T04:57:18.668Z,99653.94
2022-12-31T05:00:07.146Z,99747.81
2022-12-31T05:02:53.429Z,99724.63
2022-12-31T05:05:45.689Z,99737.88
2022-12-31T05:08:34.029Z,99719.31
2022-12-31T05:11:21.258Z,99700.28
2022-12-31T05:14:07.449Z,99761.72
2022-12-31T05:16:54.203Z,99776.16
2022-12-31T05:19:40.670Z,99781.63
2022-12-31T05:22:29.994Z,99769.59
2022-12-31T05:25:16.563Z,99752.59
2022-12-31T05:28:04.522Z,99787.31
2022-12-31T05:30:53.063Z,99714.63
2022-12-31T05:33:39.737Z,99680.13
2022-12-31T05:36:25.999Z,99681.94
2022-12-31T05:39:13.881Z,99728.88
2022-12-31T05:42:00.030Z,99745.72
2022-12-31T05:44:47.305Z,99773.88
2022-12-31T05:47:34.359Z,99746.41
2022-12-31T05:50:21.569Z,99718.72
2022-12-31T05:53:14.876Z,99688.94
2022-12-31T05:56:02.640Z,99685.72
2022-12-31T05:58:48.941Z,99727.81
2022-12-31T06:01:35.729Z,99732.34
2022-12-31T06:04:22.222Z,99752.88
2022-12-31T06:07:11.188Z,99751.25
2022-12-31T06:09:58.366Z,99769.19
2022-12-31T06:12:44.991Z,99753.47
2022-12-31T06:15:32.080Z,99775.78
2022-12-31T06:18:19.471Z,99786.06
2022-12-31T06:21:06.586Z,99740.53
2022-12-31T06:23:56.086Z,99792.94
2022-12-31T06:26:43.996Z,99765.34
2022-12-31T06:29:31.737Z,99676.59
2022-12-31T06:32:19.603Z,99700.06
2022-12-31T06:35:07.325Z,99717.66
2022-12-31T06:37:53.823Z,99682.78
2022-12-31T06:40:40.842Z,99746.50
2022-12-31T06:43:27.192Z,99744.16
2022-12-31T06:46:18.059Z,99747.75
2022-12-31T06:49:05.344Z,99792.88
2022-12-31T06:51:52.489Z,99735.38
2022-12-31T06:54:38.586Z,99706.47
2022-12-31T06:57:26.210Z,99783.66
2022-12-31T07:00:15.145Z,99778.97
2022-12-31T07:03:28.306Z,99786.47
2022-12-31T07:06:27.817Z,99778.81
2022-12-31T07:09:20.819Z,99771.94
2022-12-31T07:12:26.722Z,99766.50
2022-12-31T07:15:41.703Z,99763.75
2022-12-31T07:18:37.433Z,99766.19
2022-12-31T07:21:39.139Z,99755.91
2022-12-31T07:24:26.523Z,99719.84
2022-12-31T07:27:52.171Z,99748.91
2022-12-31T07:30:49.387Z,99752.84
2022-12-31T07:33:45.635Z,99747.13
2022-12-31T07:36:54.491Z,99750.81
2022-12-31T07:39:45.945Z,99758.03
2022-12-31T07:43:07.597Z,99727.25
2022-12-31T07:46:03.786Z,99763.16
2022-12-31T07:48:50.077Z,99728.59
2022-12-31T07:51:42.065Z,99703.88
2022-12-31T07:54:28.278Z,99703.75
2022-12-31T07:57:18.018Z,99694.19
2022-12-31T08:00:12.991Z,99756.41
2022-12-31T08:03:14.108Z,99750.88
2022-12-31T08:06:09.987Z,99718.19
2022-12-31T08:09:29.923Z,99784.47
2022-12-31T08:12:17.038Z,99736.22
2022-12-31T08:15:04.054Z,99742.00
2022-12-31T08:17:50.453Z,99797.72
2022-12-31T08:20:55.762Z,99711.38
2022-12-31T08:24:02.417Z,99791.38
2022-12-31T08:27:08.014Z,99802.47
2022-12-31T08:30:20.021Z,99799.16
2022-12-31T08:33:14.048Z,99803.13
2022-12-31T08:36:16.680Z,99771.38
2022-12-31T08:39:58.207Z,99764.28
2022-12-31T08:42:58.881Z,99786.97
2022-12-31T08:45:47.922Z,99788.47
2022-12-31T08:48:41.404Z,99722.59
2022-12-31T08:51:28.099Z,99773.94
2022-12-31T08:54:14.406Z,99744.13
2022-12-31T08:57:06.844Z,99761.72
2022-12-31T09:00:07.377Z,99695.34
2022-12-31T09:03:14.956Z,99759.47
2022-12-31T09:06:07.006Z,99761.41
2022-12-31T09:09:11.695Z,99763.03
2022-12-31T09:12:04.460Z,99761.59
2022-12-31T09:14:57.062Z,99718.03
2022-12-31T09:17:54.286Z,99671.16
2022-12-31T09:20:43.903Z,99710.47
2022-12-31T09:23:30.398Z,99696.31
2022-12-31T09:26:28.604Z,99743.66
2022-12-31T09:29:17.772Z,99734.06
2022-12-31T09:32:37.511Z,99688.50
2022-12-31T09:35:26.220Z,99729.88
2022-12-31T09:38:38.333Z,99725.31
2022-12-31T09:41:42.800Z,99686.72
2022-12-31T09:44:57.338Z,99704.59
2022-12-31T09:47:58.512Z,99716.97
2022-12-31T09:51:33.260Z,99720.56
2022-12-31T09:54:22.089Z,99725.66
2022-12-31T09:57:26.752Z,99717.69
2022-12-31T10:00:21.401Z,99717.13
2022-12-31T10:03:38.093Z,99698.09
2022-12-31T10:06:28.764Z,99694.31
2022-12-31T10:09:21.765Z,99708.38
2022-12-31T10:12:19.466Z,99691.81
2022-12-31T10:15:18.391Z,99685.84
2022-12-31T10:18:25.049Z,99701.69
2022-12-31T10:21:40.130Z,99683.66
2022-12-31T10:25:01.832Z,99668.03
2022-12-31T10:28:07.092Z,99704.31
2022-12-31T10:31:05.286Z,99710.66
2022-12-31T10:34:01.627Z,99714.22
2022-12-31T10:36:58.512Z,99674.25
2022-12-31T10:40:09.403Z,99690.88
2022-12-31T10:43:22.881Z,99687.03
2022-12-31T10:46:28.484Z,99679.13
2022-12-31T10:49:36.044Z,99642.72
2022-12-31T10:52:57.452Z,99650.59
2022-12-31T10:56:02.372Z,99648.69
2022-12-31T10:59:03.826Z,99641.25
2022-12-31T11:02:08.918Z,99640.75
2022-12-31T11:05:21.503Z,99594.53
2022-12-31T11:08:43.770Z,99585.31
2022-12-31T11:11:37.431Z,99580.47
2022-12-31T11:14:38.806Z,99590.25
2022-12-31T11:17:28.595Z,99636.06
2022-12-31T11:20:29.640Z,99630.41
2022-12-31T11:23:34.713Z,99620.06
2022-12-31T11:26:29.702Z,99631.66
2022-12-31T11:29:40.724Z,99628.72
2022-12-31T11:32:49.213Z,99633.22
2022-12-31T11:36:29.436Z,99564.44
2022-12-31T11:39:40.231Z,99542.69
2022-12-31T11:42:47.700Z,99636.00
2022-12-31T11:45:57.857Z,99629.53
2022-12-31T11:49:12.440Z,99610.16
2022-12-31T11:52:21.172Z,99554.81
2022-12-31T11:55:26.312Z,99632.66
2022-12-31T11:58:20.859Z,99600.03
2022-12-31T12:01:37.231Z,99550.16
2022-12-31T12:04:24.572Z,99541.53
2022-12-31T12:07:13.883Z,99577.63
2022-12-31T12:10:04.350Z,99593.88
2022-12-31T12:12:52.253Z,99536.94
2022-12-31T12:15:38.713Z,99631.31
2022-12-31T12:18:41.062Z,99615.03
2022-12-31T12:21:29.244Z,99614.72
2022-12-31T12:24:31.347Z,99622.13
2022-12-31T12:27:37.498Z,99635.03
2022-12-31T12:30:27.868Z,99613.25
2022-12-31T12:33:23.417Z,99593.28
2022-12-31T12:36:12.908Z,99626.66
2022-12-31T12:39:09.051Z,99606.81
2022-12-31T12:42:15.758Z,99593.28
2022-12-31T12:45:21.059Z,99616.63
2022-12-31T12:48:16.989Z,99611.13
2022-12-31T12:51:34.371Z,99612.75
2022-12-31T12:54:32.919Z,99623.66
2022-12-31T12:57:34.623Z,99590.31
2022-12-31T13:00:23.795Z,99571.66
2022-12-31T13:04:14.717Z,99611.19
2022-12-31T13:07:17.075Z,99611.53
2022-12-31T13:10:18.525Z,99617.69
2022-12-31T13:13:25.421Z,99619.97
2022-12-31T13:16:14.517Z,99616.91
2022-12-31T13:19:07.633Z,99617.69
2022-12-31T13:22:02.402Z,99629.97
2022-12-31T13:25:17.095Z,99631.88
2022-12-31T13:28:05.517Z,99617.41
2022-12-31T13:31:06.336Z,99567.22
2022-12-31T13:34:00.344Z,99618.34
2022-12-31T13:36:49.149Z,99629.81
2022-12-31T13:39:40.119Z,99629.34
2022-12-31T13:42:36.938Z,99642.97
2022-12-31T13:45:29.164Z,99633.13
2022-12-31T13:48:19.523Z,99585.09
2022-12-31T13:51:11.923Z,99634.16
2022-12-31T13:54:04.496Z,99571.94
2022-12-31T13:56:51.841Z,99644.31
2022-12-31T13:59:40.208Z,99624.81
2022-12-31T14:02:32.365Z,99599.94
2022-12-31T14:05:25.939Z,99649.69
2022-12-31T14:08:11.953Z,99655.19
2022-12-31T14:11:07.758Z,99653.09
2022-12-31T14:14:15.240Z,99663.63
2022-12-31T14:17:36.759Z,99668.28
2022-12-31T14:20:48.478Z,99669.91
2022-12-31T14:23:59.609Z,99617.59
2022-12-31T14:26:54.491Z,99647.22
2022-12-31T14:29:53.799Z,99637.94
2022-12-31T14:33:01.024Z,99677.88
2022-12-31T14:36:10.370Z,99669.53
2022-12-31T14:39:28.183Z,99670.50
2022-12-31T14:42:41.774Z,99665.06
2022-12-31T14:45:42.464Z,99669.91
2022-12-31T14:49:03.725Z,99679.63
2022-12-31T14:51:49.826Z,99679.00
2022-12-31T14:54:38.218Z,99650.69
2022-12-31T14:57:26.602Z,99656.81
2022-12-31T15:00:28.241Z,99696.63
2022-12-31T15:03:14.142Z,99715.34
2022-12-31T15:06:13.624Z,99713.41
2022-12-31T15:09:18.491Z,99691.34
2022-12-31T15:12:08.035Z,99722.63
2022-12-31T15:15:12.085Z,99726.19
2022-12-31T15:17:58.566Z,99725.34
2022-12-31T15:21:24.053Z,99699.28
2022-12-31T15:24:21.987Z,99678.47
2022-12-31T15:27:27.097Z,99732.16
2022-12-31T15:30:28.876Z,99741.50
2022-12-31T15:33:32.278Z,99734.53
2022-12-31T15:36:22.244Z,99736.97
2022-12-31T15:39:12.280Z,99741.34
2022-12-31T15:42:37.917Z,99644.16
2022-12-31T15:45:37.668Z,99715.56
2022-12-31T15:48:48.952Z,99728.44
2022-12-31T15:52:04.342Z,99744.25
2022-12-31T15:54:53.723Z,99695.91
2022-12-31T15:57:41.838Z,99723.00
2022-12-31T16:00:35.067Z,99730.72
2022-12-31T16:03:27.590Z,99738.31
2022-12-31T16:06:15.285Z,99747.19
2022-12-31T16:09:01.289Z,99735.25
2022-12-31T16:11:50.475Z,99720.09
2022-12-31T16:14:43.736Z,99755.91
2022-12-31T16:17:33.840Z,99760.75
2022-12-31T16:20:26.441Z,99646.72
2022-12-31T16:23:23.716Z,99659.78
2022-12-31T16:26:10.162Z,99653.97
2022-12-31T16:29:00.611Z,99772.03
2022-12-31T16:31:47.519Z,99719.28
2022-12-31T16:34:37.404Z,99713.63
2022-12-31T16:37:23.728Z,99738.78
2022-12-31T16:40:24.603Z,99705.41
2022-12-31T16:43:28.328Z,99773.16
2022-12-31T16:46:28.730Z,99778.31
2022-12-31T16:49:20.534Z,99758.66
2022-12-31T16:52:26.049Z,99777.19
2022-12-31T16:55:33.019Z,99744.63
2022-12-31T16:58:31.001Z,99728.94
2022-12-31T17:01:18.449Z,99792.66
2022-12-31T17:04:09.577Z,99785.25
2022-12-31T17:06:55.566Z,99771.56
2022-12-31T17:09:42.467Z,99799.59
2022-12-31T17:12:29.227Z,99781.38
2022-12-31T17:15:28.084Z,99764.94
2022-12-31T17:18:19.532Z,99690.44
2022-12-31T17:21:28.648Z,99783.31
2022-12-31T17:24:14.868Z,99769.25
2022-12-31T17:27:07.482Z,99760.38
2022-12-31T17:29:54.870Z,99786.16
2022-12-31T17:32:43.744Z,99767.16
2022-12-31T17:35:36.151Z,99790.84
2022-12-31T17:38:22.537Z,99813.25
2022-12-31T17:41:08.227Z,99828.75
2022-12-31T17:43:56.261Z,99788.41
2022-12-31T17:46:42.678Z,99781.00
2022-12-31T17:49:31.590Z,99766.16
2022-12-31T17:52:17.828Z,99766.16
2022-12-31T17:55:05.233Z,99825.66
2022-12-31T17:57:56.123Z,99808.41
2022-12-31T18:00:43.222Z,99833.72
2022-12-31T18:03:29.035Z,99813.41
2022-12-31T18:06:19.808Z,99817.13
2022-12-31T18:09:05.986Z,99852.75
2022-12-31T18:11:55.533Z,99811.97
2022-12-31T18:14:46.261Z,99833.88
2022-12-31T18:17:33.972Z,99852.75
2022-12-31T18:20:20.001Z,99831.94
2022-12-31T18:23:06.526Z,99787.44
2022-12-31T18:25:53.161Z,99833.41
2022-12-31T18:28:39.644Z,99831.78
2022-12-31T18:31:28.238Z,99796.94
2022-12-31T18:34:19.330Z,99853.38
2022-12-31T18:37:15.173Z,99855.66
2022-12-31T18:40:06.335Z,99833.69
2022-12-31T18:42:52.781Z,99828.03
2022-12-31T18:45:40.993Z,99816.94
2022-12-31T18:48:32.347Z,99752.13
2022-12-31T18:51:31.365Z,99826.09
2022-12-31T18:54:18.995Z,99725.06
2022-12-31T18:57:05.505Z,99757.28
2022-12-31T18:59:51.243Z,99809.53
2022-12-31T19:02:37.496Z,99796.28
2022-12-31T19:05:32.396Z,99802.13
2022-12-31T19:08:21.057Z,99824.88
2022-12-31T19:11:06.865Z,99816.81
2022-12-31T19:13:53.301Z,99790.38
2022-12-31T19:16:39.364Z,99816.50
2022-12-31T19:19:26.413Z,99812.97
2022-12-31T19:22:15.716Z,99828.94
2022-12-31T19:25:02.504Z,99845.25
2022-12-31T19:27:48.597Z,99839.41
2022-12-31T19:30:35.193Z,99842.81
2022-12-31T19:33:21.536Z,99839.41
2022-12-31T19:36:19.718Z,99795.72
2022-12-31T19:39:06.745Z,99851.84
2022-12-31T19:41:58.794Z,99820.88
2022-12-31T19:44:46.458Z,99793.28
2022-12-31T19:47:32.862Z,99851.50
2022-12-31T19:50:27.387Z,99801.34
2022-12-31T19:53:17.474Z,99851.97
2022-12-31T19:56:03.413Z,99850.00
2022-12-31T19:58:49.734Z,99828.22
2022-12-31T20:01:35.558Z,99845.94
2022-12-31T20:04:22.571Z,99844.16
2022-12-31T20:07:09.024Z,99861.13
2022-12-31T20:09:56.993Z,99825.94
2022-12-31T20:12:44.785Z,99858.66
2022-12-31T20:15:31.654Z,99849.81
2022-12-31T20:18:21.212Z,99847.84
2022-12-31T20:21:10.442Z,99837.69
2022-12-31T20:23:56.687Z,99838.00
2022-12-31T20:26:43.707Z,99797.38
2022-12-31T20:29:30.458Z,99845.75
2022-12-31T20:32:16.632Z,99862.06
2022-12-31T20:35:05.543Z,99840.63
2022-12-31T20:37:51.879Z,99871.28
2022-12-31T20:40:44.587Z,99856.91
2022-12-31T20:43:34.380Z,99878.38
2022-12-31T20:46:22.852Z,99844.97
2022-12-31T20:49:11.551Z,99849.34
2022-12-31T20:51:57.273Z,99846.13
2022-12-31T20:54:43.641Z,99860.44
2022-12-31T20:57:33.568Z,99873.88
2022-12-31T21:00:20.616Z,99835.31
2022-12-31T21:03:23.742Z,99852.75
2022-12-31T21:06:14.415Z,99837.94
2022-12-31T21:09:01.711Z,99865.34
2022-12-31T21:12:07.145Z,99851.31
2022-12-31T21:14:53.027Z,99872.44
2022-12-31T21:17:39.323Z,99802.00
2022-12-31T21:20:25.383Z,99863.75
2022-12-31T21:23:12.022Z,99856.50
2022-12-31T21:25:58.295Z,99816.19
2022-12-31T21:28:44.645Z,99867.47
2022-12-31T21:31:30.790Z,99863.63
2022-12-31T21:34:17.475Z,99872.81
2022-12-31T21:37:03.619Z,99852.19
2022-12-31T21:39:50.408Z,99872.84
2022-12-31T21:42:36.678Z,99865.88
2022-12-31T21:45:23.677Z,99852.19
2022-12-31T21:48:23.525Z,99873.47
2022-12-31T21:51:13.115Z,99855.88
2022-12-31T21:53:59.164Z,99877.03
2022-12-31T21:56:45.147Z,99867.53
2022-12-31T22:00:16.117Z,99823.31
2022-12-31T22:03:17.569Z,99847.69
2022-12-31T22:06:06.004Z,99899.63
2022-12-31T22:08:54.958Z,99860.25
2022-12-31T22:11:41.428Z,99878.03
2022-12-31T22:14:27.893Z,99855.88
2022-12-31T22:17:13.712Z,99879.13
2022-12-31T22:20:25.913Z,99870.72
2022-12-31T22:23:05.995Z,99858.13
2022-12-31T22:25:52.871Z,99865.69
2022-12-31T22:28:40.646Z,99882.81
2022-12-31T22:31:30.357Z,99790.88
2022-12-31T22:34:17.062Z,99846.34
2022-12-31T22:37:20.436Z,99854.75
2022-12-31T22:40:10.192Z,99858.78
2022-12-31T22:42:58.788Z,99829.75
2022-12-31T22:45:44.754Z,99840.91
2022-12-31T22:48:31.555Z,99766.69
2022-12-31T22:51:18.854Z,99846.03
2022-12-31T22:54:05.234Z,99849.28
2022-12-31T22:56:51.133Z,99871.06
2022-12-31T22:59:37.230Z,99854.59
2022-12-31T23:02:23.164Z,99828.63
2022-12-31T23:05:15.208Z,99849.59
2022-12-31T23:08:07.328Z,99859.59
2022-12-31T23:11:00.260Z,99866.03
2022-12-31T23:14:07.480Z,99862.16
2022-12-31T23:17:31.634Z,99873.81
2022-12-31T23:20:39.503Z,99850.56
2022-12-31T23:23:26.544Z,99809.09
2022-12-31T23:26:12.828Z,99862.97
2022-12-31T23:28:59.462Z,99866.19
2022-12-31T23:31:45.493Z,99836.38
2022-12-31T23:34:33.443Z,99814.41
2022-12-31T23:37:20.405Z,99841.84
2022-12-31T23:40:07.616Z,99877.66
2022-12-31T23:42:54.199Z,99826.34
2022-12-31T23:45:41.636Z,99881.69
2022-12-31T23:48:27.595Z,99809.41
2022-12-31T23:51:14.395Z,99807.63
2022-12-31T23:54:01.766Z,99818.59
2022-12-31T23:56:51.126Z,99861.00
2022-12-31T23:59:37.771Z,99842.72
